createdAt,value
2018-11-14T00:01:20.448Z,10.50
2018-11-14T00:03:49.051Z,10.50
2018-11-14T00:06:17.567Z,10.50
2018-11-14T00:08:46.141Z,10.50
2018-11-14T00:11:14.678Z,10.50
2018-11-14T00:13:43.251Z,10.50
2018-11-14T00:16:11.787Z,10.50
2018-11-14T00:18:40.388Z,10.40
2018-11-14T00:21:08.987Z,10.40
2018-11-14T00:23:37.608Z,10.40
2018-11-14T00:26:06.704Z,10.30
2018-11-14T00:28:35.557Z,10.30
2018-11-14T00:31:03.904Z,10.30
2018-11-14T00:33:32.460Z,10.30
2018-11-14T00:36:03.424Z,10.30
2018-11-14T00:38:31.946Z,10.30
2018-11-14T00:41:00.535Z,10.30
2018-11-14T00:43:29.042Z,10.30
2018-11-14T00:45:57.591Z,10.30
2018-11-14T00:48:26.162Z,10.30
2018-11-14T00:50:54.716Z,10.20
2018-11-14T00:53:23.207Z,10.20
2018-11-14T00:55:51.775Z,10.20
2018-11-14T00:58:20.287Z,10.10
2018-11-14T01:00:48.884Z,10.00
2018-11-14T01:03:17.360Z,10.00
2018-11-14T01:05:45.932Z,10.00
2018-11-14T01:08:14.460Z,9.90
2018-11-14T01:10:43.032Z,9.90
2018-11-14T01:13:11.597Z,9.80
2018-11-14T01:15:40.160Z,9.80
2018-11-14T01:18:08.670Z,9.80
2018-11-14T01:20:37.158Z,9.80
2018-11-14T01:23:06.536Z,9.70
2018-11-14T01:25:35.028Z,9.80
2018-11-14T01:28:03.604Z,9.80
2018-11-14T01:30:32.120Z,9.80
2018-11-14T01:33:00.701Z,9.70
2018-11-14T01:35:29.203Z,9.70
2018-11-14T01:37:57.758Z,9.70
2018-11-14T01:40:26.394Z,9.60
2018-11-14T01:42:56.266Z,9.60
2018-11-14T01:45:24.770Z,9.50
2018-11-14T01:47:53.364Z,9.50
2018-11-14T01:50:21.902Z,9.40
2018-11-14T01:52:50.476Z,9.40
2018-11-14T01:55:20.190Z,9.30
2018-11-14T01:57:48.774Z,9.30
2018-11-14T02:00:20.407Z,9.30
2018-11-14T02:02:48.944Z,9.30
2018-11-14T02:05:17.494Z,9.30
2018-11-14T02:07:46.062Z,9.30
2018-11-14T02:10:16.069Z,9.20
2018-11-14T02:12:45.075Z,9.20
2018-11-14T02:15:15.964Z,9.10
2018-11-14T02:17:44.610Z,9.10
2018-11-14T02:20:13.634Z,9.10
2018-11-14T02:22:42.771Z,9.00
2018-11-14T02:25:12.071Z,9.00
2018-11-14T02:27:40.623Z,8.90
2018-11-14T02:30:14.012Z,8.90
2018-11-14T02:32:42.523Z,8.80
2018-11-14T02:35:11.231Z,8.70
2018-11-14T02:37:41.048Z,8.70
2018-11-14T02:40:11.992Z,8.60
2018-11-14T02:42:40.685Z,8.60
2018-11-14T02:45:09.623Z,8.50
2018-11-14T02:47:38.181Z,8.50
2018-11-14T02:50:08.114Z,8.40
2018-11-14T02:52:36.657Z,8.40
2018-11-14T02:55:06.601Z,8.30
2018-11-14T02:57:35.196Z,8.20
2018-11-14T03:00:04.078Z,8.20
2018-11-14T03:02:32.586Z,8.10
2018-11-14T03:05:03.940Z,8.00
2018-11-14T03:07:32.458Z,8.00
2018-11-14T03:10:03.360Z,8.00
2018-11-14T03:12:32.002Z,7.90
2018-11-14T03:15:00.600Z,7.90
2018-11-14T03:17:29.151Z,7.90
2018-11-14T03:19:57.684Z,7.80
2018-11-14T03:22:26.237Z,7.70
2018-11-14T03:24:54.736Z,7.70
2018-11-14T03:27:23.275Z,7.60
2018-11-14T03:29:51.763Z,7.50
2018-11-14T03:32:20.309Z,7.50
2018-11-14T03:34:48.855Z,7.40
2018-11-14T03:37:17.414Z,7.40
2018-11-14T03:39:45.967Z,7.40
2018-11-14T03:42:14.534Z,7.40
2018-11-14T03:44:43.156Z,7.40
2018-11-14T03:47:11.688Z,7.30
2018-11-14T03:49:40.205Z,7.30
2018-11-14T03:52:09.119Z,7.30
2018-11-14T03:54:37.623Z,7.20
2018-11-14T03:57:06.225Z,7.20
2018-11-14T03:59:34.749Z,7.10
2018-11-14T04:02:03.307Z,7.10
2018-11-14T04:04:31.853Z,7.10
2018-11-14T04:07:00.570Z,7.10
2018-11-14T04:09:29.231Z,7.10
2018-11-14T04:11:57.663Z,7.10
2018-11-14T04:14:26.189Z,7.10
2018-11-14T04:16:54.747Z,7.00
2018-11-14T04:19:23.303Z,7.00
2018-11-14T04:21:51.919Z,7.00
2018-11-14T04:24:20.472Z,7.00
2018-11-14T04:26:48.963Z,6.90
2018-11-14T04:29:17.526Z,6.90
2018-11-14T04:31:46.036Z,6.90
2018-11-14T04:34:14.590Z,6.80
2018-11-14T04:36:43.098Z,6.80
2018-11-14T04:39:12.089Z,6.80
2018-11-14T04:41:40.623Z,6.80
2018-11-14T04:44:09.379Z,6.80
2018-11-14T04:46:37.890Z,6.80
2018-11-14T04:49:06.563Z,6.80
2018-11-14T04:51:35.098Z,6.80
2018-11-14T04:54:03.682Z,6.80
2018-11-14T04:56:32.203Z,6.80
2018-11-14T04:59:00.815Z,6.80
2018-11-14T05:01:29.312Z,6.80
2018-11-14T05:03:57.924Z,6.80
2018-11-14T05:06:26.448Z,6.80
2018-11-14T05:08:54.980Z,6.80
2018-11-14T05:11:23.541Z,6.80
2018-11-14T05:13:52.047Z,6.80
2018-11-14T05:16:20.762Z,6.80
2018-11-14T05:18:49.270Z,6.80
2018-11-14T05:21:17.822Z,6.80
2018-11-14T05:23:46.326Z,6.80
2018-11-14T05:26:14.863Z,6.70
2018-11-14T05:28:43.397Z,6.70
2018-11-14T05:31:11.961Z,6.70
2018-11-14T05:33:40.492Z,6.70
2018-11-14T05:36:09.042Z,6.60
2018-11-14T05:38:37.618Z,6.60
2018-11-14T05:41:06.322Z,6.60
2018-11-14T05:43:34.809Z,6.60
2018-11-14T05:46:03.359Z,6.60
2018-11-14T05:48:31.900Z,6.50
2018-11-14T05:51:00.478Z,6.50
2018-11-14T05:53:28.966Z,6.50
2018-11-14T05:55:57.480Z,6.50
2018-11-14T05:58:26.007Z,6.50
2018-11-14T06:00:54.526Z,6.40
2018-11-14T06:03:23.135Z,6.40
2018-11-14T06:05:51.665Z,6.40
2018-11-14T06:08:20.224Z,6.40
2018-11-14T06:10:48.764Z,6.40
2018-11-14T06:13:17.319Z,6.40
2018-11-14T06:15:45.880Z,6.40
2018-11-14T06:18:14.545Z,6.40
2018-11-14T06:20:43.042Z,6.40
2018-11-14T06:23:11.617Z,6.40
2018-11-14T06:25:40.135Z,6.40
2018-11-14T06:28:09.955Z,6.40
2018-11-14T06:30:39.565Z,6.40
2018-11-14T06:33:09.236Z,6.40
2018-11-14T06:35:37.763Z,6.40
2018-11-14T06:38:06.420Z,6.50
2018-11-14T06:40:34.931Z,6.50
2018-11-14T06:43:03.503Z,6.50
2018-11-14T06:45:33.052Z,6.60
2018-11-14T06:48:03.001Z,6.60
2018-11-14T06:50:31.599Z,6.60
2018-11-14T06:53:03.072Z,6.70
2018-11-14T06:55:31.707Z,6.70
2018-11-14T06:58:00.275Z,6.80
2018-11-14T07:00:30.971Z,6.80
2018-11-14T07:03:00.322Z,6.90
2018-11-14T07:05:29.003Z,7.00
2018-11-14T07:07:57.515Z,7.00
2018-11-14T07:10:27.314Z,7.10
2018-11-14T07:13:00.012Z,7.30
2018-11-14T07:15:28.600Z,7.30
2018-11-14T07:17:57.234Z,7.40
2018-11-14T07:20:28.074Z,7.50
2018-11-14T07:22:56.637Z,7.70
2018-11-14T07:25:25.230Z,7.80
2018-11-14T07:27:54.849Z,7.90
2018-11-14T07:30:24.682Z,8.00
2018-11-14T07:32:58.428Z,8.10
2018-11-14T07:35:27.015Z,8.20
2018-11-14T07:38:30.099Z,8.30
2018-11-14T07:40:59.016Z,8.30
2018-11-14T07:43:27.569Z,8.40
2018-11-14T07:45:56.134Z,8.50
2018-11-14T07:48:24.658Z,8.60
2018-11-14T07:50:53.230Z,8.60
2018-11-14T07:53:21.746Z,8.70
2018-11-14T07:55:50.299Z,8.80
2018-11-14T07:58:18.816Z,8.90
2018-11-14T08:00:47.410Z,8.90
2018-11-14T08:03:15.983Z,9.00
2018-11-14T08:05:44.595Z,9.10
2018-11-14T08:08:13.183Z,9.20
2018-11-14T08:10:41.899Z,9.30
2018-11-14T08:13:10.618Z,9.40
2018-11-14T08:15:39.306Z,9.40
2018-11-14T08:18:07.874Z,9.50
2018-11-14T08:20:36.441Z,9.60
2018-11-14T08:23:05.115Z,9.80
2018-11-14T08:25:33.747Z,9.80
2018-11-14T08:28:03.009Z,10.00
2018-11-14T08:30:31.517Z,10.10
2018-11-14T08:33:00.078Z,10.20
2018-11-14T08:35:28.599Z,10.40
2018-11-14T08:37:57.156Z,10.40
2018-11-14T08:40:25.679Z,10.50
2018-11-14T08:42:54.211Z,10.60
2018-11-14T08:45:22.741Z,10.70
2018-11-14T08:47:51.391Z,10.80
2018-11-14T08:50:20.012Z,10.90
2018-11-14T08:52:48.511Z,11.00
2018-11-14T08:55:17.047Z,11.10
2018-11-14T08:57:47.433Z,11.20
2018-11-14T09:00:19.119Z,11.30
2018-11-14T09:02:48.243Z,11.40
2018-11-14T09:05:16.775Z,11.50
2018-11-14T09:07:45.369Z,11.50
2018-11-14T09:10:16.147Z,11.60
2018-11-14T09:12:45.060Z,11.70
2018-11-14T09:15:18.059Z,11.80
2018-11-14T09:17:46.635Z,11.90
2018-11-14T09:20:19.490Z,11.90
2018-11-14T09:22:48.029Z,12.00
2018-11-14T09:25:24.359Z,12.00
2018-11-14T09:27:52.906Z,12.00
2018-11-14T09:30:22.729Z,12.00
2018-11-14T09:32:51.270Z,12.00
2018-11-14T09:35:20.807Z,12.10
2018-11-14T09:37:49.367Z,12.10
2018-11-14T09:40:20.243Z,12.10
2018-11-14T09:42:48.791Z,12.20
2018-11-14T09:45:21.612Z,12.30
2018-11-14T09:47:50.187Z,12.40
2018-11-14T09:50:24.086Z,12.50
2018-11-14T09:52:56.832Z,12.50
2018-11-14T09:55:25.386Z,12.50
2018-11-14T09:57:53.927Z,12.50
2018-11-14T10:00:26.706Z,12.50
2018-11-14T10:02:58.148Z,12.60
2018-11-14T10:05:26.672Z,12.60
2018-11-14T10:07:55.262Z,12.60
2018-11-14T10:10:24.239Z,12.60
2018-11-14T10:12:52.771Z,12.70
2018-11-14T10:15:22.584Z,12.70
2018-11-14T10:17:51.134Z,12.80
2018-11-14T10:20:20.990Z,12.90
2018-11-14T10:22:49.569Z,12.90
2018-11-14T10:25:18.555Z,13.00
2018-11-14T10:27:47.791Z,13.00
2018-11-14T10:30:20.026Z,13.00
2018-11-14T10:32:49.163Z,13.10
2018-11-14T10:35:17.663Z,13.10
2018-11-14T10:37:46.252Z,13.10
2018-11-14T10:40:17.586Z,13.10
2018-11-14T10:42:46.349Z,13.20
2018-11-14T10:45:16.031Z,13.30
2018-11-14T10:47:44.724Z,13.40
2018-11-14T10:50:15.586Z,13.30
2018-11-14T10:52:44.158Z,13.30
2018-11-14T10:55:13.503Z,13.30
2018-11-14T10:57:42.523Z,13.40
2018-11-14T11:00:24.126Z,13.50
2018-11-14T11:02:58.002Z,13.40
2018-11-14T11:05:32.758Z,13.50
2018-11-14T11:08:06.788Z,13.40
2018-11-14T11:10:40.459Z,13.40
2018-11-14T11:15:18.771Z,13.40
2018-11-14T11:17:52.658Z,13.30
2018-11-14T11:20:21.255Z,13.30
2018-11-14T11:22:49.768Z,13.30
2018-11-14T11:25:18.419Z,13.40
2018-11-14T11:27:46.963Z,13.30
2018-11-14T11:30:15.547Z,13.40
2018-11-14T11:32:44.041Z,13.40
2018-11-14T11:35:12.575Z,13.50
2018-11-14T11:37:41.085Z,13.40
2018-11-14T11:40:11.704Z,13.50
2018-11-14T11:42:40.218Z,13.50
2018-11-14T11:45:09.255Z,13.50
2018-11-14T11:47:37.828Z,13.60
2018-11-14T11:50:06.855Z,13.70
2018-11-14T11:52:35.411Z,13.70
2018-11-14T11:55:04.029Z,13.60
2018-11-14T11:57:32.618Z,13.60
2018-11-14T12:00:01.207Z,13.70
2018-11-14T12:02:29.777Z,13.70
2018-11-14T12:04:58.333Z,13.70
2018-11-14T12:07:26.902Z,13.60
2018-11-14T12:09:55.409Z,13.60
2018-11-14T12:12:24.014Z,13.70
2018-11-14T12:14:52.554Z,13.70
2018-11-14T12:17:21.125Z,13.60
2018-11-14T12:19:49.662Z,13.60
2018-11-14T12:22:18.215Z,13.70
2018-11-14T12:24:46.698Z,13.80
2018-11-14T12:27:15.394Z,13.70
2018-11-14T12:29:43.855Z,13.80
2018-11-14T12:32:12.339Z,13.70
2018-11-14T12:34:40.949Z,13.70
2018-11-14T12:37:09.423Z,13.70
2018-11-14T12:39:37.956Z,13.60
2018-11-14T12:42:06.891Z,13.50
2018-11-14T12:44:35.399Z,13.50
2018-11-14T12:47:03.913Z,13.50
2018-11-14T12:49:32.473Z,13.50
2018-11-14T12:52:00.988Z,13.40
2018-11-14T12:54:29.599Z,13.40
2018-11-14T12:56:58.207Z,13.30
2018-11-14T12:59:26.790Z,13.30
2018-11-14T13:01:55.322Z,13.30
2018-11-14T13:04:23.915Z,13.40
2018-11-14T13:06:52.447Z,13.30
2018-11-14T13:09:20.978Z,13.30
2018-11-14T13:11:49.509Z,13.30
2018-11-14T13:14:18.113Z,13.30
2018-11-14T13:16:46.669Z,13.30
2018-11-14T13:19:15.247Z,13.30
2018-11-14T13:21:43.756Z,13.30
2018-11-14T13:24:12.352Z,13.30
2018-11-14T13:26:40.849Z,13.30
2018-11-14T13:29:09.431Z,13.30
2018-11-14T13:31:37.927Z,13.30
2018-11-14T13:34:06.448Z,13.30
2018-11-14T13:36:35.029Z,13.30
2018-11-14T13:39:04.140Z,13.30
2018-11-14T13:41:32.679Z,13.20
2018-11-14T13:44:01.212Z,13.10
2018-11-14T13:46:29.770Z,13.10
2018-11-14T13:48:58.281Z,13.10
2018-11-14T13:51:26.862Z,13.00
2018-11-14T13:53:55.490Z,13.00
2018-11-14T13:56:24.052Z,12.90
2018-11-14T13:58:52.575Z,12.90
2018-11-14T14:01:21.235Z,12.80
2018-11-14T14:03:49.761Z,12.80
2018-11-14T14:06:18.308Z,12.80
2018-11-14T14:08:46.825Z,12.70
2018-11-14T14:11:15.432Z,12.70
2018-11-14T14:13:49.124Z,12.60
2018-11-14T14:16:17.755Z,12.60
2018-11-14T14:18:46.496Z,12.50
2018-11-14T14:21:15.319Z,12.40
2018-11-14T14:23:43.862Z,12.30
2018-11-14T14:26:12.491Z,12.30
2018-11-14T14:28:41.035Z,12.20
2018-11-14T14:31:09.629Z,12.20
2018-11-14T14:33:38.161Z,12.10
2018-11-14T14:36:06.731Z,11.90
2018-11-14T14:38:35.288Z,11.90
2018-11-14T14:41:03.903Z,11.90
2018-11-14T14:43:32.504Z,11.80
2018-11-14T14:46:01.023Z,11.80
2018-11-14T14:48:29.598Z,11.80
2018-11-14T14:50:58.117Z,11.70
2018-11-14T14:53:26.707Z,11.60
2018-11-14T14:55:55.203Z,11.60
2018-11-14T14:58:23.744Z,11.60
2018-11-14T15:00:52.239Z,11.50
2018-11-14T15:03:20.781Z,11.50
2018-11-14T15:05:49.299Z,11.40
2018-11-14T15:08:17.857Z,11.40
2018-11-14T15:10:46.365Z,11.30
2018-11-14T15:13:14.906Z,11.30
2018-11-14T15:15:43.507Z,11.10
2018-11-14T15:18:12.105Z,11.10
2018-11-14T15:20:40.618Z,11.00
2018-11-14T15:23:09.203Z,10.90
2018-11-14T15:25:37.837Z,10.80
2018-11-14T15:28:06.610Z,10.70
2018-11-14T15:30:35.260Z,10.60
2018-11-14T15:33:03.843Z,10.50
2018-11-14T15:35:32.481Z,10.40
2018-11-14T15:38:07.415Z,10.30
2018-11-14T15:40:36.035Z,10.20
2018-11-14T15:43:04.627Z,10.10
2018-11-14T15:45:33.265Z,10.00
2018-11-14T15:48:01.909Z,9.90
2018-11-14T15:50:31.134Z,9.80
2018-11-14T15:52:59.945Z,9.70
2018-11-14T15:55:28.493Z,9.60
2018-11-14T15:57:57.363Z,9.50
2018-11-14T16:00:28.123Z,9.40
2018-11-14T16:02:56.655Z,9.30
2018-11-14T16:05:26.426Z,9.20
2018-11-14T16:07:56.275Z,9.10
2018-11-14T16:10:25.822Z,9.10
2018-11-14T16:12:54.439Z,9.00
2018-11-14T16:15:24.511Z,8.90
2018-11-14T16:17:53.159Z,8.80
2018-11-14T16:20:23.104Z,8.70
2018-11-14T16:22:51.685Z,8.60
2018-11-14T16:25:21.499Z,8.50
2018-11-14T16:27:51.179Z,8.50
2018-11-14T16:30:23.046Z,8.40
2018-11-14T16:32:52.728Z,8.30
2018-11-14T16:35:21.272Z,8.30
2018-11-14T16:37:49.868Z,8.20
2018-11-14T16:40:19.763Z,8.10
2018-11-14T16:42:49.026Z,8.00
2018-11-14T16:45:18.083Z,8.00
2018-11-14T16:47:46.690Z,7.90
2018-11-14T16:50:16.501Z,7.90
2018-11-14T16:52:45.111Z,7.80
2018-11-14T16:55:15.047Z,7.80
2018-11-14T16:57:44.551Z,7.70
2018-11-14T17:00:16.464Z,7.70
2018-11-14T17:02:45.181Z,7.60
2018-11-14T17:05:14.195Z,7.60
2018-11-14T17:07:42.871Z,7.60
2018-11-14T17:10:17.299Z,7.50
2018-11-14T17:12:46.914Z,7.50
2018-11-14T17:15:17.021Z,7.40
2018-11-14T17:17:45.660Z,7.40
2018-11-14T17:20:15.174Z,7.40
2018-11-14T17:22:44.218Z,7.40
2018-11-14T17:25:13.695Z,7.30
2018-11-14T17:27:42.687Z,7.20
2018-11-14T17:30:13.692Z,7.20
2018-11-14T17:32:42.670Z,7.20
2018-11-14T17:35:12.249Z,7.10
2018-11-14T17:37:41.459Z,7.10
2018-11-14T17:40:12.311Z,7.00
2018-11-14T17:42:41.411Z,7.00
2018-11-14T17:45:12.495Z,6.90
2018-11-14T17:47:41.153Z,6.80
2018-11-14T17:50:25.955Z,6.70
2018-11-14T17:52:55.150Z,6.70
2018-11-14T17:55:24.362Z,6.60
2018-11-14T17:57:52.816Z,6.60
2018-11-14T18:00:22.760Z,6.60
2018-11-14T18:02:51.289Z,6.50
2018-11-14T18:05:21.154Z,6.50
2018-11-14T18:07:50.372Z,6.50
2018-11-14T18:10:20.993Z,6.50
2018-11-14T18:12:50.566Z,6.40
2018-11-14T18:15:19.260Z,6.40
2018-11-14T18:17:48.445Z,6.30
2018-11-14T18:20:18.528Z,6.30
2018-11-14T18:22:47.649Z,6.30
2018-11-14T18:25:16.443Z,6.20
2018-11-14T18:27:45.002Z,6.20
2018-11-14T18:30:16.890Z,6.10
2018-11-14T18:32:45.464Z,6.10
2018-11-14T18:35:15.237Z,6.00
2018-11-14T18:37:44.468Z,5.90
2018-11-14T18:40:14.591Z,5.90
2018-11-14T18:42:43.231Z,5.90
2018-11-14T18:45:15.951Z,5.80
2018-11-14T18:47:45.199Z,5.80
2018-11-14T18:50:14.696Z,5.80
2018-11-14T18:52:43.932Z,5.80
2018-11-14T18:55:13.667Z,5.80
2018-11-14T18:57:42.845Z,5.70
2018-11-14T19:00:14.971Z,5.70
2018-11-14T19:02:43.772Z,5.60
2018-11-14T19:05:13.847Z,5.60
2018-11-14T19:07:42.692Z,5.50
2018-11-14T19:10:12.811Z,5.50
2018-11-14T19:12:41.809Z,5.50
2018-11-14T19:15:12.944Z,5.50
2018-11-14T19:17:41.579Z,5.40
2018-11-14T19:20:12.783Z,5.30
2018-11-14T19:22:41.679Z,5.30
2018-11-14T19:25:15.759Z,5.30
2018-11-14T19:27:45.283Z,5.30
2018-11-14T19:30:15.625Z,5.20
2018-11-14T19:32:45.364Z,5.20
2018-11-14T19:35:14.196Z,5.20
2018-11-14T19:37:43.916Z,5.10
2018-11-14T19:40:21.365Z,5.10
2018-11-14T19:42:51.447Z,5.10
2018-11-14T19:45:21.299Z,5.00
2018-11-14T19:47:49.886Z,5.00
2018-11-14T19:50:19.585Z,4.90
2018-11-14T19:52:48.475Z,4.90
2018-11-14T19:55:18.371Z,4.90
2018-11-14T19:57:47.771Z,4.90
2018-11-14T20:00:18.875Z,4.80
2018-11-14T20:02:47.448Z,4.80
2018-11-14T20:05:16.771Z,4.80
2018-11-14T20:07:45.445Z,4.70
2018-11-14T20:10:15.391Z,4.70
2018-11-14T20:12:44.119Z,4.70
2018-11-14T20:15:14.082Z,4.70
2018-11-14T20:17:43.628Z,4.60
2018-11-14T20:20:14.020Z,4.60
2018-11-14T20:22:43.064Z,4.60
2018-11-14T20:25:11.625Z,4.60
2018-11-14T20:27:40.432Z,4.60
2018-11-14T20:30:11.056Z,4.60
2018-11-14T20:32:39.839Z,4.60
2018-11-14T20:35:09.247Z,4.60
2018-11-14T20:37:37.797Z,4.60
2018-11-14T20:40:07.259Z,4.60
2018-11-14T20:42:35.823Z,4.60
2018-11-14T20:45:04.677Z,4.70
2018-11-14T20:47:33.247Z,4.70
2018-11-14T20:50:01.767Z,4.70
2018-11-14T20:52:30.403Z,4.60
2018-11-14T20:54:58.923Z,4.60
2018-11-14T20:57:27.463Z,4.60
2018-11-14T20:59:56.063Z,4.60
2018-11-14T21:02:24.593Z,4.50
2018-11-14T21:04:53.096Z,4.50
2018-11-14T21:07:21.627Z,4.40
2018-11-14T21:09:50.210Z,4.40
2018-11-14T21:12:18.747Z,4.30
2018-11-14T21:14:47.263Z,4.30
2018-11-14T21:17:15.847Z,4.30
2018-11-14T21:19:44.412Z,4.20
2018-11-14T21:22:14.244Z,4.20
2018-11-14T21:24:43.092Z,4.10
2018-11-14T21:27:11.628Z,4.10
2018-11-14T21:29:40.176Z,4.00
2018-11-14T21:32:08.640Z,4.00
2018-11-14T21:34:37.173Z,4.00
2018-11-14T21:37:05.705Z,4.00
2018-11-14T21:39:34.249Z,3.90
2018-11-14T21:42:02.753Z,3.90
2018-11-14T21:44:31.295Z,3.80
2018-11-14T21:46:59.807Z,3.80
2018-11-14T21:49:29.486Z,3.80
2018-11-14T21:51:58.907Z,3.70
2018-11-14T21:54:27.599Z,3.60
2018-11-14T21:56:56.693Z,3.60
2018-11-14T21:59:25.235Z,3.60
2018-11-14T22:01:53.759Z,3.50
2018-11-14T22:04:22.295Z,3.50
2018-11-14T22:06:50.841Z,3.50
2018-11-14T22:09:19.387Z,3.50
2018-11-14T22:11:47.910Z,3.50
2018-11-14T22:14:16.443Z,3.40
2018-11-14T22:16:44.943Z,3.40
2018-11-14T22:19:13.611Z,3.40
2018-11-14T22:21:42.124Z,3.40
2018-11-14T22:24:10.667Z,3.40
2018-11-14T22:26:39.199Z,3.40
2018-11-14T22:29:07.707Z,3.30
2018-11-14T22:31:37.242Z,3.40
2018-11-14T22:34:06.574Z,3.40
2018-11-14T22:36:35.144Z,3.50
2018-11-14T22:39:04.439Z,3.50
2018-11-14T22:41:33.011Z,3.50
2018-11-14T22:44:01.507Z,3.50
2018-11-14T22:46:30.079Z,3.50
2018-11-14T22:48:58.589Z,3.50
2018-11-14T22:51:27.147Z,3.50
2018-11-14T22:53:55.636Z,3.50
2018-11-14T22:56:24.211Z,3.50
2018-11-14T22:58:52.731Z,3.50
2018-11-14T23:01:21.263Z,3.50
2018-11-14T23:03:49.865Z,3.40
2018-11-14T23:06:18.408Z,3.50
2018-11-14T23:08:46.917Z,3.40
2018-11-14T23:11:15.454Z,3.40
2018-11-14T23:13:43.943Z,3.40
2018-11-14T23:16:12.503Z,3.40
2018-11-14T23:18:41.043Z,3.40
2018-11-14T23:21:09.579Z,3.40
2018-11-14T23:23:38.145Z,3.40
2018-11-14T23:26:06.646Z,3.30
2018-11-14T23:28:35.168Z,3.30
2018-11-14T23:31:03.659Z,3.30
2018-11-14T23:33:32.173Z,3.20
2018-11-14T23:36:00.651Z,3.20
2018-11-14T23:38:29.161Z,3.20
2018-11-14T23:40:57.727Z,3.20
2018-11-14T23:43:26.259Z,3.20
2018-11-14T23:45:54.798Z,3.20
2018-11-14T23:48:23.320Z,3.20
2018-11-14T23:50:51.839Z,3.20
2018-11-14T23:53:20.409Z,3.20
2018-11-14T23:55:48.901Z,3.20
2018-11-14T23:58:17.438Z,3.30
